sensor_id;sensor_type;location;lat;lon;timestamp;P1;durP1;ratioP1;P2;durP2;ratioP2
7231;SDS011;3657;49.630;11.018;2023-11-19T00:00:57;28.07;;;27.27;;
7231;SDS011;3657;49.630;11.018;2023-11-19T00:03:25;27.23;;;26.33;;
7231;SDS011;3657;49.630;11.018;2023-11-19T00:05:53;28.73;;;27.73;;
7231;SDS011;3657;49.630;11.018;2023-11-19T00:08:20;24.37;;;23.67;;
7231;SDS011;3657;49.630;11.018;2023-11-19T00:10:49;27.80;;;26.80;;
7231;SDS011;3657;49.630;11.018;2023-11-19T00:13:16;27.47;;;26.63;;
7231;SDS011;3657;49.630;11.018;2023-11-19T00:15:43;22.17;;;21.67;;
7231;SDS011;3657;49.630;11.018;2023-11-19T00:18:10;31.07;;;30.07;;
7231;SDS011;3657;49.630;11.018;2023-11-19T00:20:37;25.50;;;24.80;;
7231;SDS011;3657;49.630;11.018;2023-11-19T00:23:05;26.17;;;25.37;;
7231;SDS011;3657;49.630;11.018;2023-11-19T00:25:31;24.87;;;24.20;;
7231;SDS011;3657;49.630;11.018;2023-11-19T00:27:58;25.23;;;24.43;;
7231;SDS011;3657;49.630;11.018;2023-11-19T00:30:25;28.50;;;27.47;;
7231;SDS011;3657;49.630;11.018;2023-11-19T00:32:51;27.13;;;26.33;;
7231;SDS011;3657;49.630;11.018;2023-11-19T00:35:18;27.70;;;26.80;;
7231;SDS011;3657;49.630;11.018;2023-11-19T00:37:45;27.50;;;26.50;;
7231;SDS011;3657;49.630;11.018;2023-11-19T00:40:14;25.93;;;25.13;;
7231;SDS011;3657;49.630;11.018;2023-11-19T00:42:43;27.27;;;26.37;;
7231;SDS011;3657;49.630;11.018;2023-11-19T00:45:09;28.53;;;27.53;;
7231;SDS011;3657;49.630;11.018;2023-11-19T00:47:38;30.07;;;29.07;;
7231;SDS011;3657;49.630;11.018;2023-11-19T00:50:05;29.87;;;28.87;;
7231;SDS011;3657;49.630;11.018;2023-11-19T00:52:34;33.10;;;32.03;;
7231;SDS011;3657;49.630;11.018;2023-11-19T00:55:01;28.80;;;27.90;;
7231;SDS011;3657;49.630;11.018;2023-11-19T00:57:30;32.97;;;31.90;;
7231;SDS011;3657;49.630;11.018;2023-11-19T00:59:58;31.57;;;30.43;;
7231;SDS011;3657;49.630;11.018;2023-11-19T01:02:24;29.73;;;28.63;;
7231;SDS011;3657;49.630;11.018;2023-11-19T01:04:51;28.67;;;27.77;;
7231;SDS011;3657;49.630;11.018;2023-11-19T01:07:18;34.87;;;33.47;;
7231;SDS011;3657;49.630;11.018;2023-11-19T01:09:46;31.07;;;30.03;;
7231;SDS011;3657;49.630;11.018;2023-11-19T01:12:13;38.03;;;36.73;;
7231;SDS011;3657;49.630;11.018;2023-11-19T01:14:41;35.97;;;34.60;;
7231;SDS011;3657;49.630;11.018;2023-11-19T01:17:08;38.97;;;37.47;;
7231;SDS011;3657;49.630;11.018;2023-11-19T01:19:34;33.73;;;32.60;;
7231;SDS011;3657;49.630;11.018;2023-11-19T01:22:01;34.13;;;32.93;;
7231;SDS011;3657;49.630;11.018;2023-11-19T01:24:28;39.77;;;38.27;;
7231;SDS011;3657;49.630;11.018;2023-11-19T01:26:56;29.03;;;28.03;;
7231;SDS011;3657;49.630;11.018;2023-11-19T01:29:24;34.70;;;33.27;;
7231;SDS011;3657;49.630;11.018;2023-11-19T01:31:52;40.67;;;39.07;;
7231;SDS011;3657;49.630;11.018;2023-11-19T01:34:19;33.30;;;32.00;;
7231;SDS011;3657;49.630;11.018;2023-11-19T01:36:46;35.00;;;33.60;;
7231;SDS011;3657;49.630;11.018;2023-11-19T01:39:13;28.27;;;27.23;;
7231;SDS011;3657;49.630;11.018;2023-11-19T01:41:41;27.40;;;26.40;;
7231;SDS011;3657;49.630;11.018;2023-11-19T01:44:07;26.10;;;25.17;;
7231;SDS011;3657;49.630;11.018;2023-11-19T01:46:37;26.37;;;25.47;;
7231;SDS011;3657;49.630;11.018;2023-11-19T01:49:05;26.33;;;25.43;;
7231;SDS011;3657;49.630;11.018;2023-11-19T01:51:33;25.50;;;24.70;;
7231;SDS011;3657;49.630;11.018;2023-11-19T01:54:01;26.37;;;25.47;;
7231;SDS011;3657;49.630;11.018;2023-11-19T01:56:28;25.23;;;24.43;;
7231;SDS011;3657;49.630;11.018;2023-11-19T01:58:56;25.57;;;24.67;;
7231;SDS011;3657;49.630;11.018;2023-11-19T02:01:23;28.70;;;27.70;;
7231;SDS011;3657;49.630;11.018;2023-11-19T02:03:50;23.23;;;22.63;;
7231;SDS011;3657;49.630;11.018;2023-11-19T02:06:19;24.80;;;23.90;;
7231;SDS011;3657;49.630;11.018;2023-11-19T02:08:45;25.13;;;24.33;;
7231;SDS011;3657;49.630;11.018;2023-11-19T02:11:12;23.67;;;22.97;;
7231;SDS011;3657;49.630;11.018;2023-11-19T02:13:39;26.20;;;25.33;;
7231;SDS011;3657;49.630;11.018;2023-11-19T02:16:06;23.23;;;22.63;;
7231;SDS011;3657;49.630;11.018;2023-11-19T02:18:34;25.57;;;24.67;;
7231;SDS011;3657;49.630;11.018;2023-11-19T02:21:01;24.03;;;23.33;;
7231;SDS011;3657;49.630;11.018;2023-11-19T02:23:29;27.40;;;26.30;;
7231;SDS011;3657;49.630;11.018;2023-11-19T02:26:02;23.40;;;22.80;;
7231;SDS011;3657;49.630;11.018;2023-11-19T02:28:45;24.73;;;24.00;;
7231;SDS011;3657;49.630;11.018;2023-11-19T02:31:12;24.17;;;23.50;;
7231;SDS011;3657;49.630;11.018;2023-11-19T02:33:39;23.50;;;22.87;;
7231;SDS011;3657;49.630;11.018;2023-11-19T02:36:06;25.30;;;24.30;;
7231;SDS011;3657;49.630;11.018;2023-11-19T02:38:35;22.80;;;22.20;;
7231;SDS011;3657;49.630;11.018;2023-11-19T02:41:02;20.43;;;19.97;;
7231;SDS011;3657;49.630;11.018;2023-11-19T02:43:30;19.93;;;19.50;;
7231;SDS011;3657;49.630;11.018;2023-11-19T02:45:59;20.43;;;19.97;;
7231;SDS011;3657;49.630;11.018;2023-11-19T02:48:26;22.47;;;21.87;;
7231;SDS011;3657;49.630;11.018;2023-11-19T02:50:53;23.90;;;23.30;;
7231;SDS011;3657;49.630;11.018;2023-11-19T02:53:20;25.43;;;24.63;;
7231;SDS011;3657;49.630;11.018;2023-11-19T02:55:47;20.17;;;19.67;;
7231;SDS011;3657;49.630;11.018;2023-11-19T02:58:15;21.83;;;21.23;;
7231;SDS011;3657;49.630;11.018;2023-11-19T03:00:48;24.00;;;23.30;;
7231;SDS011;3657;49.630;11.018;2023-11-19T03:03:23;21.07;;;20.57;;
7231;SDS011;3657;49.630;11.018;2023-11-19T03:05:54;23.37;;;22.77;;
7231;SDS011;3657;49.630;11.018;2023-11-19T03:08:20;21.13;;;20.53;;
7231;SDS011;3657;49.630;11.018;2023-11-19T03:10:48;19.30;;;18.90;;
7231;SDS011;3657;49.630;11.018;2023-11-19T03:13:15;21.90;;;21.30;;
7231;SDS011;3657;49.630;11.018;2023-11-19T03:15:43;20.20;;;19.80;;
7231;SDS011;3657;49.630;11.018;2023-11-19T03:18:09;22.40;;;21.70;;
7231;SDS011;3657;49.630;11.018;2023-11-19T03:20:37;21.23;;;20.70;;
7231;SDS011;3657;49.630;11.018;2023-11-19T03:23:04;20.63;;;20.20;;
7231;SDS011;3657;49.630;11.018;2023-11-19T03:25:31;21.67;;;21.17;;
7231;SDS011;3657;49.630;11.018;2023-11-19T03:27:59;27.67;;;26.77;;
7231;SDS011;3657;49.630;11.018;2023-11-19T03:30:27;30.10;;;28.90;;
7231;SDS011;3657;49.630;11.018;2023-11-19T03:32:54;30.30;;;29.40;;
7231;SDS011;3657;49.630;11.018;2023-11-19T03:35:20;30.63;;;29.53;;
7231;SDS011;3657;49.630;11.018;2023-11-19T03:37:49;30.40;;;29.40;;
7231;SDS011;3657;49.630;11.018;2023-11-19T03:40:16;29.37;;;28.30;;
7231;SDS011;3657;49.630;11.018;2023-11-19T03:42:43;26.27;;;25.37;;
7231;SDS011;3657;49.630;11.018;2023-11-19T03:45:10;25.67;;;24.77;;
7231;SDS011;3657;49.630;11.018;2023-11-19T03:47:37;26.73;;;25.73;;
7231;SDS011;3657;49.630;11.018;2023-11-19T03:50:04;24.53;;;23.90;;
7231;SDS011;3657;49.630;11.018;2023-11-19T03:52:32;23.83;;;23.10;;
7231;SDS011;3657;49.630;11.018;2023-11-19T03:55:01;21.63;;;21.13;;
7231;SDS011;3657;49.630;11.018;2023-11-19T03:57:28;26.23;;;25.23;;
7231;SDS011;3657;49.630;11.018;2023-11-19T03:59:54;23.83;;;23.03;;
7231;SDS011;3657;49.630;11.018;2023-11-19T04:02:23;23.63;;;22.93;;
7231;SDS011;3657;49.630;11.018;2023-11-19T04:04:52;22.23;;;21.73;;
7231;SDS011;3657;49.630;11.018;2023-11-19T04:07:19;22.67;;;22.07;;
7231;SDS011;3657;49.630;11.018;2023-11-19T04:09:46;27.83;;;26.90;;
7231;SDS011;3657;49.630;11.018;2023-11-19T04:12:14;23.23;;;22.53;;
7231;SDS011;3657;49.630;11.018;2023-11-19T04:14:41;29.87;;;28.63;;
7231;SDS011;3657;49.630;11.018;2023-11-19T04:17:07;28.27;;;27.00;;
7231;SDS011;3657;49.630;11.018;2023-11-19T04:19:34;28.33;;;27.13;;
7231;SDS011;3657;49.630;11.018;2023-11-19T04:22:01;29.80;;;28.73;;
7231;SDS011;3657;49.630;11.018;2023-11-19T04:24:27;26.83;;;25.93;;
7231;SDS011;3657;49.630;11.018;2023-11-19T04:26:54;25.13;;;24.33;;
7231;SDS011;3657;49.630;11.018;2023-11-19T04:29:22;32.73;;;31.23;;
7231;SDS011;3657;49.630;11.018;2023-11-19T04:31:49;31.17;;;29.67;;
7231;SDS011;3657;49.630;11.018;2023-11-19T04:34:15;25.70;;;24.90;;
7231;SDS011;3657;49.630;11.018;2023-11-19T04:36:42;27.63;;;26.43;;
7231;SDS011;3657;49.630;11.018;2023-11-19T04:39:09;23.50;;;22.87;;
7231;SDS011;3657;49.630;11.018;2023-11-19T04:41:41;33.37;;;31.53;;
7231;SDS011;3657;49.630;11.018;2023-11-19T04:44:12;34.50;;;32.63;;
7231;SDS011;3657;49.630;11.018;2023-11-19T04:46:40;40.97;;;38.77;;
7231;SDS011;3657;49.630;11.018;2023-11-19T04:49:08;36.40;;;34.20;;
7231;SDS011;3657;49.630;11.018;2023-11-19T04:51:37;28.50;;;27.30;;
7231;SDS011;3657;49.630;11.018;2023-11-19T04:54:05;29.73;;;28.40;;
7231;SDS011;3657;49.630;11.018;2023-11-19T04:56:33;33.43;;;31.73;;
7231;SDS011;3657;49.630;11.018;2023-11-19T04:59:00;35.57;;;33.43;;
7231;SDS011;3657;49.630;11.018;2023-11-19T05:01:27;34.53;;;32.77;;
7231;SDS011;3657;49.630;11.018;2023-11-19T05:03:55;32.10;;;30.43;;
7231;SDS011;3657;49.630;11.018;2023-11-19T05:06:25;33.30;;;31.57;;
7231;SDS011;3657;49.630;11.018;2023-11-19T05:08:53;30.13;;;28.50;;
7231;SDS011;3657;49.630;11.018;2023-11-19T05:11:20;27.97;;;26.97;;
7231;SDS011;3657;49.630;11.018;2023-11-19T05:13:46;31.00;;;29.43;;
7231;SDS011;3657;49.630;11.018;2023-11-19T05:16:13;29.87;;;28.57;;
7231;SDS011;3657;49.630;11.018;2023-11-19T05:18:40;36.13;;;34.30;;
7231;SDS011;3657;49.630;11.018;2023-11-19T05:21:08;28.00;;;26.77;;
7231;SDS011;3657;49.630;11.018;2023-11-19T05:23:35;28.43;;;27.10;;
7231;SDS011;3657;49.630;11.018;2023-11-19T05:26:02;29.13;;;28.03;;
7231;SDS011;3657;49.630;11.018;2023-11-19T05:28:28;29.00;;;27.67;;
7231;SDS011;3657;49.630;11.018;2023-11-19T05:30:55;27.57;;;26.47;;
7231;SDS011;3657;49.630;11.018;2023-11-19T05:33:22;29.60;;;28.40;;
7231;SDS011;3657;49.630;11.018;2023-11-19T05:35:48;28.10;;;26.70;;
7231;SDS011;3657;49.630;11.018;2023-11-19T05:38:16;29.57;;;28.27;;
7231;SDS011;3657;49.630;11.018;2023-11-19T05:40:43;28.83;;;27.63;;
7231;SDS011;3657;49.630;11.018;2023-11-19T05:43:10;26.63;;;25.63;;
7231;SDS011;3657;49.630;11.018;2023-11-19T05:45:36;29.53;;;28.43;;
7231;SDS011;3657;49.630;11.018;2023-11-19T05:48:03;28.50;;;27.10;;
7231;SDS011;3657;49.630;11.018;2023-11-19T05:50:30;27.53;;;26.37;;
7231;SDS011;3657;49.630;11.018;2023-11-19T05:52:57;30.93;;;29.43;;
7231;SDS011;3657;49.630;11.018;2023-11-19T05:55:25;29.83;;;28.43;;
7231;SDS011;3657;49.630;11.018;2023-11-19T05:57:53;26.63;;;25.50;;
7231;SDS011;3657;49.630;11.018;2023-11-19T06:00:19;28.27;;;27.13;;
7231;SDS011;3657;49.630;11.018;2023-11-19T06:02:46;29.10;;;28.00;;
7231;SDS011;3657;49.630;11.018;2023-11-19T06:05:13;29.07;;;27.87;;
7231;SDS011;3657;49.630;11.018;2023-11-19T06:07:40;27.20;;;25.90;;
7231;SDS011;3657;49.630;11.018;2023-11-19T06:10:06;27.83;;;26.67;;
7231;SDS011;3657;49.630;11.018;2023-11-19T06:12:36;27.23;;;26.13;;
7231;SDS011;3657;49.630;11.018;2023-11-19T06:15:06;27.83;;;26.63;;
7231;SDS011;3657;49.630;11.018;2023-11-19T06:17:34;26.43;;;25.33;;
7231;SDS011;3657;49.630;11.018;2023-11-19T06:20:00;26.53;;;25.47;;
7231;SDS011;3657;49.630;11.018;2023-11-19T06:22:29;23.97;;;23.10;;
7231;SDS011;3657;49.630;11.018;2023-11-19T06:24:56;29.00;;;27.80;;
7231;SDS011;3657;49.630;11.018;2023-11-19T06:27:23;29.33;;;27.90;;
7231;SDS011;3657;49.630;11.018;2023-11-19T06:29:51;24.63;;;23.80;;
7231;SDS011;3657;49.630;11.018;2023-11-19T06:32:18;25.57;;;24.53;;
7231;SDS011;3657;49.630;11.018;2023-11-19T06:34:44;24.30;;;23.50;;
7231;SDS011;3657;49.630;11.018;2023-11-19T06:37:11;25.90;;;25.00;;
7231;SDS011;3657;49.630;11.018;2023-11-19T06:39:38;27.03;;;25.93;;
7231;SDS011;3657;49.630;11.018;2023-11-19T06:42:05;22.67;;;21.87;;
7231;SDS011;3657;49.630;11.018;2023-11-19T06:44:32;24.53;;;23.63;;
7231;SDS011;3657;49.630;11.018;2023-11-19T06:47:00;28.03;;;26.93;;
7231;SDS011;3657;49.630;11.018;2023-11-19T06:49:27;27.57;;;26.53;;
7231;SDS011;3657;49.630;11.018;2023-11-19T06:51:54;26.37;;;25.13;;
7231;SDS011;3657;49.630;11.018;2023-11-19T06:54:20;27.40;;;26.30;;
7231;SDS011;3657;49.630;11.018;2023-11-19T06:56:48;25.77;;;24.87;;
7231;SDS011;3657;49.630;11.018;2023-11-19T06:59:15;26.20;;;25.30;;
7231;SDS011;3657;49.630;11.018;2023-11-19T07:01:41;25.13;;;24.33;;
7231;SDS011;3657;49.630;11.018;2023-11-19T07:04:11;25.83;;;24.93;;
7231;SDS011;3657;49.630;11.018;2023-11-19T07:06:38;26.27;;;25.40;;
7231;SDS011;3657;49.630;11.018;2023-11-19T07:09:06;28.33;;;27.23;;
7231;SDS011;3657;49.630;11.018;2023-11-19T07:11:35;42.40;;;39.43;;
7231;SDS011;3657;49.630;11.018;2023-11-19T07:14:03;30.20;;;28.70;;
7231;SDS011;3657;49.630;11.018;2023-11-19T07:16:31;26.70;;;25.77;;
7231;SDS011;3657;49.630;11.018;2023-11-19T07:18:58;27.40;;;26.30;;
7231;SDS011;3657;49.630;11.018;2023-11-19T07:21:26;25.60;;;24.80;;
7231;SDS011;3657;49.630;11.018;2023-11-19T07:23:53;25.37;;;24.60;;
7231;SDS011;3657;49.630;11.018;2023-11-19T07:26:20;23.47;;;22.97;;
7231;SDS011;3657;49.630;11.018;2023-11-19T07:28:47;24.23;;;23.53;;
7231;SDS011;3657;49.630;11.018;2023-11-19T07:31:14;22.60;;;22.00;;
7231;SDS011;3657;49.630;11.018;2023-11-19T07:33:41;22.17;;;21.67;;
7231;SDS011;3657;49.630;11.018;2023-11-19T07:36:09;23.17;;;22.47;;
7231;SDS011;3657;49.630;11.018;2023-11-19T07:38:37;23.47;;;22.70;;
7231;SDS011;3657;49.630;11.018;2023-11-19T07:41:04;24.60;;;23.67;;
7231;SDS011;3657;49.630;11.018;2023-11-19T07:43:31;24.77;;;23.97;;
7231;SDS011;3657;49.630;11.018;2023-11-19T07:45:58;23.57;;;22.83;;
7231;SDS011;3657;49.630;11.018;2023-11-19T07:48:25;26.33;;;25.43;;
7231;SDS011;3657;49.630;11.018;2023-11-19T07:50:52;22.00;;;21.40;;
7231;SDS011;3657;49.630;11.018;2023-11-19T07:53:19;22.53;;;21.97;;
7231;SDS011;3657;49.630;11.018;2023-11-19T07:55:47;21.87;;;21.37;;
7231;SDS011;3657;49.630;11.018;2023-11-19T07:58:14;22.80;;;22.20;;
7231;SDS011;3657;49.630;11.018;2023-11-19T08:00:41;21.30;;;20.87;;
7231;SDS011;3657;49.630;11.018;2023-11-19T08:03:07;22.03;;;21.53;;
7231;SDS011;3657;49.630;11.018;2023-11-19T08:05:34;41.97;;;38.77;;
7231;SDS011;3657;49.630;11.018;2023-11-19T08:08:01;40.67;;;37.67;;
7231;SDS011;3657;49.630;11.018;2023-11-19T08:10:27;28.57;;;27.37;;
7231;SDS011;3657;49.630;11.018;2023-11-19T08:12:56;26.77;;;25.73;;
7231;SDS011;3657;49.630;11.018;2023-11-19T08:15:22;24.00;;;23.33;;
7231;SDS011;3657;49.630;11.018;2023-11-19T08:17:49;24.80;;;24.00;;
7231;SDS011;3657;49.630;11.018;2023-11-19T08:20:16;23.43;;;22.73;;
7231;SDS011;3657;49.630;11.018;2023-11-19T08:22:42;23.40;;;22.83;;
7231;SDS011;3657;49.630;11.018;2023-11-19T08:25:09;25.17;;;24.27;;
7231;SDS011;3657;49.630;11.018;2023-11-19T08:27:36;24.23;;;23.27;;
7231;SDS011;3657;49.630;11.018;2023-11-19T08:30:05;23.23;;;22.60;;
7231;SDS011;3657;49.630;11.018;2023-11-19T08:32:32;25.30;;;24.50;;
7231;SDS011;3657;49.630;11.018;2023-11-19T08:35:00;24.17;;;23.50;;
7231;SDS011;3657;49.630;11.018;2023-11-19T08:37:27;22.93;;;22.43;;
7231;SDS011;3657;49.630;11.018;2023-11-19T08:39:53;26.03;;;24.93;;
7231;SDS011;3657;49.630;11.018;2023-11-19T08:42:21;28.17;;;27.07;;
7231;SDS011;3657;49.630;11.018;2023-11-19T08:44:48;25.80;;;25.00;;
7231;SDS011;3657;49.630;11.018;2023-11-19T08:47:20;26.97;;;25.97;;
7231;SDS011;3657;49.630;11.018;2023-11-19T08:49:47;26.37;;;25.63;;
7231;SDS011;3657;49.630;11.018;2023-11-19T08:52:16;22.97;;;22.47;;
7231;SDS011;3657;49.630;11.018;2023-11-19T08:54:43;24.10;;;23.40;;
7231;SDS011;3657;49.630;11.018;2023-11-19T08:57:10;26.00;;;25.33;;
7231;SDS011;3657;49.630;11.018;2023-11-19T08:59:36;26.77;;;25.97;;
7231;SDS011;3657;49.630;11.018;2023-11-19T09:02:03;29.07;;;27.87;;
7231;SDS011;3657;49.630;11.018;2023-11-19T09:04:31;28.53;;;27.43;;
7231;SDS011;3657;49.630;11.018;2023-11-19T09:06:58;27.43;;;26.63;;
7231;SDS011;3657;49.630;11.018;2023-11-19T09:09:25;24.80;;;24.10;;
7231;SDS011;3657;49.630;11.018;2023-11-19T09:11:51;20.07;;;19.53;;
7231;SDS011;3657;49.630;11.018;2023-11-19T09:14:18;21.60;;;21.10;;
7231;SDS011;3657;49.630;11.018;2023-11-19T09:16:49;25.73;;;24.87;;
7231;SDS011;3657;49.630;11.018;2023-11-19T09:19:15;22.27;;;21.70;;
7231;SDS011;3657;49.630;11.018;2023-11-19T09:21:44;22.60;;;22.00;;
7231;SDS011;3657;49.630;11.018;2023-11-19T09:24:10;22.70;;;22.30;;
7231;SDS011;3657;49.630;11.018;2023-11-19T09:26:37;22.47;;;21.97;;
7231;SDS011;3657;49.630;11.018;2023-11-19T09:29:06;19.87;;;19.47;;
7231;SDS011;3657;49.630;11.018;2023-11-19T09:31:33;23.90;;;23.40;;
7231;SDS011;3657;49.630;11.018;2023-11-19T09:34:00;20.63;;;20.13;;
7231;SDS011;3657;49.630;11.018;2023-11-19T09:36:27;19.07;;;18.77;;
7231;SDS011;3657;49.630;11.018;2023-11-19T09:38:55;22.97;;;22.37;;
7231;SDS011;3657;49.630;11.018;2023-11-19T09:41:21;26.57;;;25.67;;
7231;SDS011;3657;49.630;11.018;2023-11-19T09:43:52;25.93;;;25.30;;
7231;SDS011;3657;49.630;11.018;2023-11-19T09:46:18;21.83;;;21.23;;
7231;SDS011;3657;49.630;11.018;2023-11-19T09:48:46;23.57;;;23.07;;
7231;SDS011;3657;49.630;11.018;2023-11-19T09:51:17;20.07;;;19.27;;
7231;SDS011;3657;49.630;11.018;2023-11-19T09:53:44;21.77;;;21.27;;
7231;SDS011;3657;49.630;11.018;2023-11-19T09:56:12;23.30;;;22.80;;
7231;SDS011;3657;49.630;11.018;2023-11-19T09:58:39;21.60;;;21.03;;
7231;SDS011;3657;49.630;11.018;2023-11-19T10:01:06;23.00;;;22.40;;
7231;SDS011;3657;49.630;11.018;2023-11-19T10:03:36;22.97;;;22.30;;
7231;SDS011;3657;49.630;11.018;2023-11-19T10:06:06;19.30;;;18.70;;
7231;SDS011;3657;49.630;11.018;2023-11-19T10:08:33;23.07;;;22.27;;
7231;SDS011;3657;49.630;11.018;2023-11-19T10:11:04;19.23;;;18.83;;
7231;SDS011;3657;49.630;11.018;2023-11-19T10:13:32;19.80;;;19.13;;
7231;SDS011;3657;49.630;11.018;2023-11-19T10:16:03;20.13;;;19.80;;
7231;SDS011;3657;49.630;11.018;2023-11-19T10:18:33;20.37;;;19.87;;
7231;SDS011;3657;49.630;11.018;2023-11-19T10:21:03;20.23;;;19.73;;
7231;SDS011;3657;49.630;11.018;2023-11-19T10:23:30;19.47;;;19.07;;
7231;SDS011;3657;49.630;11.018;2023-11-19T10:26:02;20.23;;;19.83;;
7231;SDS011;3657;49.630;11.018;2023-11-19T10:28:38;20.87;;;20.27;;
7231;SDS011;3657;49.630;11.018;2023-11-19T10:31:07;19.70;;;19.20;;
7231;SDS011;3657;49.630;11.018;2023-11-19T10:33:34;20.73;;;20.13;;
7231;SDS011;3657;49.630;11.018;2023-11-19T10:36:00;19.20;;;18.80;;
7231;SDS011;3657;49.630;11.018;2023-11-19T10:38:27;18.30;;;17.90;;
7231;SDS011;3657;49.630;11.018;2023-11-19T10:40:55;19.80;;;19.27;;
7231;SDS011;3657;49.630;11.018;2023-11-19T10:43:23;19.37;;;18.87;;
7231;SDS011;3657;49.630;11.018;2023-11-19T10:45:51;18.93;;;18.53;;
7231;SDS011;3657;49.630;11.018;2023-11-19T10:48:18;20.17;;;19.67;;
7231;SDS011;3657;49.630;11.018;2023-11-19T10:50:46;17.77;;;17.27;;
7231;SDS011;3657;49.630;11.018;2023-11-19T10:53:20;18.23;;;17.73;;
7231;SDS011;3657;49.630;11.018;2023-11-19T10:55:51;16.83;;;16.53;;
7231;SDS011;3657;49.630;11.018;2023-11-19T10:58:18;16.97;;;16.50;;
7231;SDS011;3657;49.630;11.018;2023-11-19T11:00:47;18.30;;;17.90;;
7231;SDS011;3657;49.630;11.018;2023-11-19T11:03:18;20.07;;;19.67;;
7231;SDS011;3657;49.630;11.018;2023-11-19T11:05:46;20.20;;;19.63;;
7231;SDS011;3657;49.630;11.018;2023-11-19T11:08:14;19.43;;;19.03;;
7231;SDS011;3657;49.630;11.018;2023-11-19T11:10:42;19.20;;;18.73;;
7231;SDS011;3657;49.630;11.018;2023-11-19T11:13:11;18.43;;;18.13;;
7231;SDS011;3657;49.630;11.018;2023-11-19T11:15:40;17.60;;;17.20;;
7231;SDS011;3657;49.630;11.018;2023-11-19T11:18:08;18.57;;;18.17;;
7231;SDS011;3657;49.630;11.018;2023-11-19T11:20:36;17.13;;;16.83;;
7231;SDS011;3657;49.630;11.018;2023-11-19T11:23:15;19.67;;;19.27;;
7231;SDS011;3657;49.630;11.018;2023-11-19T11:26:05;21.20;;;20.67;;
7231;SDS011;3657;49.630;11.018;2023-11-19T11:28:46;22.60;;;22.00;;
7231;SDS011;3657;49.630;11.018;2023-11-19T11:31:26;22.37;;;21.87;;
7231;SDS011;3657;49.630;11.018;2023-11-19T11:34:05;24.57;;;23.87;;
7231;SDS011;3657;49.630;11.018;2023-11-19T11:36:47;24.67;;;24.17;;
7231;SDS011;3657;49.630;11.018;2023-11-19T11:39:21;25.43;;;24.63;;
7231;SDS011;3657;49.630;11.018;2023-11-19T11:41:58;22.30;;;21.80;;
7231;SDS011;3657;49.630;11.018;2023-11-19T11:45:00;24.33;;;23.70;;
7231;SDS011;3657;49.630;11.018;2023-11-19T11:50:32;23.30;;;22.50;;
7231;SDS011;3657;49.630;11.018;2023-11-19T11:53:16;22.70;;;22.20;;
7231;SDS011;3657;49.630;11.018;2023-11-19T11:55:56;20.53;;;20.13;;
7231;SDS011;3657;49.630;11.018;2023-11-19T11:58:25;20.80;;;20.37;;
7231;SDS011;3657;49.630;11.018;2023-11-19T12:00:56;20.67;;;20.27;;
7231;SDS011;3657;49.630;11.018;2023-11-19T12:03:23;22.00;;;21.50;;
7231;SDS011;3657;49.630;11.018;2023-11-19T12:05:52;21.33;;;20.83;;
7231;SDS011;3657;49.630;11.018;2023-11-19T12:08:25;22.43;;;21.83;;
7231;SDS011;3657;49.630;11.018;2023-11-19T12:10:54;24.13;;;23.57;;
7231;SDS011;3657;49.630;11.018;2023-11-19T12:13:23;23.53;;;23.03;;
7231;SDS011;3657;49.630;11.018;2023-11-19T12:16:09;21.90;;;21.30;;
7231;SDS011;3657;49.630;11.018;2023-11-19T12:18:37;23.60;;;23.00;;
7231;SDS011;3657;49.630;11.018;2023-11-19T12:21:05;22.80;;;22.20;;
7231;SDS011;3657;49.630;11.018;2023-11-19T12:23:35;23.17;;;22.67;;
7231;SDS011;3657;49.630;11.018;2023-11-19T12:26:20;23.47;;;22.97;;
7231;SDS011;3657;49.630;11.018;2023-11-19T12:28:57;23.83;;;23.13;;
7231;SDS011;3657;49.630;11.018;2023-11-19T12:31:24;23.03;;;22.33;;
7231;SDS011;3657;49.630;11.018;2023-11-19T12:33:51;23.70;;;23.20;;
7231;SDS011;3657;49.630;11.018;2023-11-19T12:36:17;23.27;;;22.57;;
7231;SDS011;3657;49.630;11.018;2023-11-19T12:38:46;24.70;;;24.00;;
7231;SDS011;3657;49.630;11.018;2023-11-19T12:41:13;23.30;;;22.50;;
7231;SDS011;3657;49.630;11.018;2023-11-19T12:43:42;25.83;;;24.90;;
7231;SDS011;3657;49.630;11.018;2023-11-19T12:46:19;24.43;;;23.73;;
7231;SDS011;3657;49.630;11.018;2023-11-19T12:48:47;25.40;;;24.80;;
7231;SDS011;3657;49.630;11.018;2023-11-19T12:51:15;24.40;;;23.90;;
7231;SDS011;3657;49.630;11.018;2023-11-19T12:53:50;24.83;;;23.90;;
7231;SDS011;3657;49.630;11.018;2023-11-19T12:56:19;22.27;;;21.73;;
7231;SDS011;3657;49.630;11.018;2023-11-19T12:58:46;24.43;;;23.73;;
7231;SDS011;3657;49.630;11.018;2023-11-19T13:01:15;23.50;;;22.90;;
7231;SDS011;3657;49.630;11.018;2023-11-19T13:03:43;24.23;;;23.67;;
7231;SDS011;3657;49.630;11.018;2023-11-19T13:06:11;25.50;;;24.97;;
7231;SDS011;3657;49.630;11.018;2023-11-19T13:08:39;25.10;;;24.50;;
7231;SDS011;3657;49.630;11.018;2023-11-19T13:11:08;25.40;;;24.80;;
7231;SDS011;3657;49.630;11.018;2023-11-19T13:13:54;25.60;;;24.93;;
7231;SDS011;3657;49.630;11.018;2023-11-19T13:16:21;24.77;;;24.07;;
7231;SDS011;3657;49.630;11.018;2023-11-19T13:18:48;24.43;;;23.83;;
7231;SDS011;3657;49.630;11.018;2023-11-19T13:21:14;26.07;;;25.37;;
7231;SDS011;3657;49.630;11.018;2023-11-19T13:23:41;25.27;;;24.67;;
7231;SDS011;3657;49.630;11.018;2023-11-19T13:26:09;25.20;;;24.40;;
7231;SDS011;3657;49.630;11.018;2023-11-19T13:28:36;24.30;;;23.60;;
7231;SDS011;3657;49.630;11.018;2023-11-19T13:31:03;24.17;;;23.47;;
7231;SDS011;3657;49.630;11.018;2023-11-19T13:33:30;24.27;;;23.73;;
7231;SDS011;3657;49.630;11.018;2023-11-19T13:35:57;24.27;;;23.67;;
7231;SDS011;3657;49.630;11.018;2023-11-19T13:38:24;24.53;;;23.83;;
7231;SDS011;3657;49.630;11.018;2023-11-19T13:40:51;25.43;;;24.80;;
7231;SDS011;3657;49.630;11.018;2023-11-19T13:43:19;24.37;;;23.73;;
7231;SDS011;3657;49.630;11.018;2023-11-19T13:45:46;18.97;;;18.37;;
7231;SDS011;3657;49.630;11.018;2023-11-19T13:48:12;25.10;;;24.30;;
7231;SDS011;3657;49.630;11.018;2023-11-19T13:50:39;24.57;;;23.90;;
7231;SDS011;3657;49.630;11.018;2023-11-19T13:53:07;24.40;;;23.63;;
7231;SDS011;3657;49.630;11.018;2023-11-19T13:55:33;24.87;;;23.67;;
7231;SDS011;3657;49.630;11.018;2023-11-19T13:58:00;21.37;;;20.87;;
7231;SDS011;3657;49.630;11.018;2023-11-19T14:00:28;20.20;;;19.67;;
7231;SDS011;3657;49.630;11.018;2023-11-19T14:02:56;21.73;;;21.10;;
7231;SDS011;3657;49.630;11.018;2023-11-19T14:05:22;20.83;;;20.03;;
7231;SDS011;3657;49.630;11.018;2023-11-19T14:07:49;20.67;;;20.07;;
7231;SDS011;3657;49.630;11.018;2023-11-19T14:10:16;19.27;;;18.60;;
7231;SDS011;3657;49.630;11.018;2023-11-19T14:12:43;19.50;;;19.07;;
7231;SDS011;3657;49.630;11.018;2023-11-19T14:15:10;22.27;;;21.77;;
7231;SDS011;3657;49.630;11.018;2023-11-19T14:17:39;21.90;;;21.13;;
7231;SDS011;3657;49.630;11.018;2023-11-19T14:20:06;22.73;;;22.23;;
7231;SDS011;3657;49.630;11.018;2023-11-19T14:22:37;24.20;;;23.37;;
7231;SDS011;3657;49.630;11.018;2023-11-19T14:25:04;23.57;;;22.87;;
7231;SDS011;3657;49.630;11.018;2023-11-19T14:27:34;24.03;;;23.53;;
7231;SDS011;3657;49.630;11.018;2023-11-19T14:30:01;22.93;;;22.43;;
7231;SDS011;3657;49.630;11.018;2023-11-19T14:32:28;22.57;;;22.10;;
7231;SDS011;3657;49.630;11.018;2023-11-19T14:34:56;24.93;;;24.23;;
7231;SDS011;3657;49.630;11.018;2023-11-19T14:37:23;23.07;;;22.37;;
7231;SDS011;3657;49.630;11.018;2023-11-19T14:39:50;24.57;;;24.00;;
7231;SDS011;3657;49.630;11.018;2023-11-19T14:42:17;24.43;;;23.67;;